Time;durP1;ratioP1;P1;durP2;ratioP2;P2;SDS_P1;SDS_P2;PMS_P1;PMS_P2;Temp;Humidity;BMP_temperature;BMP_pressure;BME280_temperature;BME280_humidity;BME280_pressure;Samples;Min_cycle;Max_cycle;Signal;HPM_P1;HPM_P2
2021/03/05 00:01:11;;;;;;;42.88;25.83;;;;;;;4.67;76.98;100326.72;5056651;28;20066;-74
2021/03/05 00:03:42;;;;;;;47.67;27.00;;;;;;;4.82;76.26;100320.84;5056407;28;20478;-74
2021/03/05 00:06:22;;;;;;;42.92;26.88;;;;;;;4.92;76.33;100325.06;5056414;28;20124;-75
2021/03/05 00:08:47;;;;;;;45.30;27.20;;;;;;;4.87;76.12;100314.97;5056570;28;20413;-75
2021/03/05 00:11:23;;;;;;;45.67;25.92;;;;;;;4.57;75.88;100317.47;5074285;28;20024;-74
2021/03/05 00:13:49;;;;;;;48.33;27.48;;;;;;;4.48;77.31;100325.00;5074376;28;20024;-74
2021/03/05 00:16:17;;;;;;;55.22;29.55;;;;;;;4.87;76.21;100326.75;5074319;28;20028;-74
2021/03/05 00:19:04;;;;;;;42.08;25.20;;;;;;;5.13;74.61;100325.06;5056190;28;20020;-74
2021/03/05 00:21:36;;;;;;;44.35;25.58;;;;;;;4.83;76.17;100320.03;5056302;28;20036;-74
2021/03/05 00:24:12;;;;;;;44.70;26.10;;;;;;;4.65;77.68;100308.25;5056234;28;20090;-74
2021/03/05 00:26:45;;;;;;;45.60;26.17;;;;;;;3.84;79.28;100303.00;5074188;28;20028;-75
2021/03/05 00:29:21;;;;;;;43.83;25.85;;;;;;;4.13;79.75;100306.47;5056191;28;20029;-74
2021/03/05 00:31:52;;;;;;;44.88;26.42;;;;;;;4.93;75.07;100309.94;5056022;28;20032;-74
2021/03/05 00:34:20;;;;;;;43.35;26.55;;;;;;;4.53;77.17;100310.75;5073867;28;20115;-74
2021/03/05 00:36:59;;;;;;;44.25;25.73;;;;;;;4.68;75.99;100302.38;5056186;28;20024;-74
2021/03/05 00:39:28;;;;;;;52.50;28.52;;;;;;;4.86;75.19;100300.72;5055953;28;20025;-74
2021/03/05 00:41:54;;;;;;;79.50;37.90;;;;;;;4.40;77.63;100304.00;5070063;28;20052;-74
2021/03/05 00:44:50;;;;;;;94.95;44.50;;;;;;;4.70;76.89;100299.03;5055875;28;20424;-74
2021/03/05 00:47:19;;;;;;;88.05;46.58;;;;;;;4.59;77.15;100294.81;5055960;28;20040;-75
2021/03/05 00:50:08;;;;;;;62.08;34.35;;;;;;;4.62;75.93;100308.25;5055408;28;20517;-74
2021/03/05 00:53:01;;;;;;;67.82;39.13;;;;;;;4.88;75.68;100304.06;5073295;28;20060;-74
2021/03/05 00:55:30;;;;;;;51.92;31.60;;;;;;;4.62;77.41;100290.63;5073583;28;20039;-75
2021/03/05 00:57:57;;;;;;;50.15;28.80;;;;;;;4.39;77.47;100288.09;5075248;28;20028;-75
2021/03/05 01:00:28;;;;;;;48.45;28.40;;;;;;;4.52;77.36;100293.13;5055691;28;20074;-74
2021/03/05 01:03:07;;;;;;;52.00;29.60;;;;;;;4.58;77.87;100286.41;5072601;28;20026;-74
2021/03/05 01:05:33;;;;;;;49.83;30.23;;;;;;;4.49;76.73;100255.38;5073142;28;20092;-74
2021/03/05 01:08:05;;;;;;;51.45;29.65;;;;;;;4.58;76.84;100275.50;5073165;28;20052;-74
2021/03/05 01:11:12;;;;;;;51.60;31.80;;;;;;;4.83;76.19;100283.06;5055374;28;20021;-75
2021/03/05 01:14:13;;;;;;;57.75;33.03;;;;;;;4.59;75.33;100270.50;5055237;28;20044;-75
2021/03/05 01:16:53;;;;;;;55.40;32.88;;;;;;;4.71;74.28;100268.00;5055080;28;20040;-75
2021/03/05 01:19:34;;;;;;;55.22;33.78;;;;;;;4.47;76.05;100267.13;5055163;28;20127;-75
2021/03/05 01:22:54;;;;;;;52.83;32.55;;;;;;;4.11;77.70;100272.91;5072941;28;20052;-75
2021/03/05 01:25:25;;;;;;;52.20;29.98;;;;;;;3.93;77.21;100245.19;5054984;28;20051;-74
2021/03/05 01:28:09;;;;;;;52.58;30.98;;;;;;;4.27;77.50;100264.56;5072831;28;20025;-74
2021/03/05 01:30:36;;;;;;;78.85;42.63;;;;;;;4.31;76.58;100263.75;5072498;28;20025;-74
2021/03/05 01:33:07;;;;;;;77.30;40.25;;;;;;;4.47;75.54;100252.00;5072809;28;20054;-74
2021/03/05 01:35:37;;;;;;;66.93;36.00;;;;;;;4.69;76.37;100257.06;5072716;28;20025;-74
2021/03/05 01:38:24;;;;;;;58.28;34.00;;;;;;;4.31;77.71;100256.19;5072439;28;20024;-74
2021/03/05 01:40:55;;;;;;;49.33;29.98;;;;;;;4.49;77.17;100261.25;5054652;28;20425;-74
2021/03/05 01:43:20;;;;;;;50.22;29.77;;;;;;;4.33;77.14;100267.09;5054486;28;20045;-76
2021/03/05 01:46:08;;;;;;;48.28;29.60;;;;;;;4.23;78.43;100273.78;5072492;28;20058;-74
2021/03/05 01:48:40;;;;;;;48.85;28.77;;;;;;;4.05;77.43;100245.22;5072372;28;20028;-75
2021/03/05 01:51:22;;;;;;;48.72;28.80;;;;;;;4.36;76.58;100250.31;5054214;28;20037;-74
2021/03/05 01:53:57;;;;;;;49.85;27.65;;;;;;;4.50;77.24;100265.44;5072641;28;20033;-74
2021/03/05 01:56:50;;;;;;;49.33;27.92;;;;;;;3.98;77.44;100269.50;5054544;28;20478;-74
2021/03/05 01:59:41;;;;;;;48.17;28.92;;;;;;;4.14;78.00;100276.28;5054598;28;20025;-75
2021/03/05 02:02:19;;;;;;;53.40;29.33;;;;;;;4.08;78.05;100277.94;5072050;28;20055;-74
2021/03/05 02:05:05;;;;;;;47.58;28.13;;;;;;;4.25;78.42;100282.19;5071864;28;20386;-74
2021/03/05 02:07:31;;;;;;;50.72;28.95;;;;;;;4.33;78.43;100279.69;5054193;28;20033;-74
2021/03/05 02:09:57;;;;;;;47.40;28.73;;;;;;;4.34;78.71;100272.13;5054474;28;20020;-74
2021/03/05 02:12:24;;;;;;;50.08;27.92;;;;;;;3.88;79.85;100277.84;5053924;28;20037;-74
2021/03/05 02:14:53;;;;;;;45.63;27.67;;;;;;;4.33;77.31;100272.13;5053506;28;20404;-74
2021/03/05 02:17:39;;;;;;;52.40;30.20;;;;;;;4.79;76.36;100266.31;5072131;28;20032;-74
2021/03/05 02:20:24;;;;;;;50.50;29.35;;;;;;;4.61;76.97;100265.44;5053875;28;20020;-74
2021/03/05 02:26:52;;;;;;;44.42;24.50;;;;;;;3.98;76.79;100276.25;5072079;28;20048;-74
2021/03/05 02:29:45;;;;;;;64.95;36.03;;;;;;;3.76;78.50;100270.31;5071824;28;20120;-74
2021/03/05 02:32:38;;;;;;;63.53;34.67;;;;;;;3.82;77.38;100269.47;5071497;28;20415;-74
2021/03/05 02:35:09;;;;;;;62.50;34.45;;;;;;;3.70;78.71;100275.31;5053713;28;20052;-74
2021/03/05 02:37:46;;;;;;;43.37;26.20;;;;;;;3.71;78.27;100269.44;5053745;28;20027;-74
2021/03/05 02:40:36;;;;;;;57.95;33.88;;;;;;;3.62;78.54;100288.66;5053833;28;20271;-74
2021/03/05 02:43:04;;;;;;;60.50;34.67;;;;;;;3.76;77.28;100279.50;5071017;28;20056;-74
2021/03/05 02:46:11;;;;;;;62.28;38.00;;;;;;;4.02;76.59;100283.78;5071445;28;20028;-75
2021/03/05 02:48:46;;;;;;;72.05;39.78;;;;;;;3.36;77.37;100291.03;5053636;28;20036;-74
2021/03/05 02:51:33;;;;;;;80.05;42.92;;;;;;;3.67;77.66;100287.00;5053436;28;20025;-75
2021/03/05 02:54:08;;;;;;;75.55;42.08;;;;;;;3.88;76.31;100277.03;5071755;28;20516;-75
2021/03/05 02:56:52;;;;;;;71.22;44.20;;;;;;;4.01;75.68;100268.69;5053688;28;20034;-74
2021/03/05 02:59:52;;;;;;;66.13;41.55;;;;;;;4.32;74.44;100276.31;5071797;28;20108;-74
2021/03/05 03:02:30;;;;;;;68.60;39.78;;;;;;;4.25;75.47;100273.78;5053816;28;20090;-74
2021/03/05 03:04:57;;;;;;;67.22;39.72;;;;;;;3.99;75.76;100278.75;5071112;28;20397;-74
2021/03/05 03:07:24;;;;;;;68.05;39.63;;;;;;;3.75;76.23;100263.56;5053460;28;20032;-75
2021/03/05 03:10:14;;;;;;;68.00;38.97;;;;;;;3.84;76.40;100280.38;5071490;28;20108;-75
2021/03/05 03:13:02;;;;;;;61.90;37.03;;;;;;;3.94;76.51;100272.03;5053364;28;20039;-75
2021/03/05 03:15:34;;;;;;;61.63;35.75;;;;;;;3.71;77.95;100269.44;5071457;28;20048;-74
2021/03/05 03:18:05;;;;;;;61.33;35.10;;;;;;;3.76;77.66;100264.44;5053278;28;20052;-74
2021/03/05 03:20:53;;;;;;;57.08;33.72;;;;;;;4.10;76.00;100281.31;5071138;28;20032;-74
2021/03/05 03:23:22;;;;;;;58.92;36.08;;;;;;;3.99;75.86;100248.59;5053595;28;20043;-75
2021/03/05 03:25:59;;;;;;;60.72;36.83;;;;;;;4.03;76.62;100280.44;5054178;28;20032;-74
2021/03/05 03:28:37;;;;;;;91.93;51.50;;;;;;;3.57;76.93;100275.22;5057096;28;20055;-75
2021/03/05 03:31:17;;;;;;;106.55;60.50;;;;;;;3.57;77.17;100276.06;5075226;28;20038;-75
2021/03/05 03:33:48;;;;;;;104.45;59.85;;;;;;;3.93;76.75;100285.44;5074347;28;20024;-75
2021/03/05 03:36:14;;;;;;;92.75;53.33;;;;;;;3.82;75.52;100282.06;5055714;28;20035;-75
2021/03/05 03:38:51;;;;;;;86.85;50.63;;;;;;;3.84;75.42;100276.19;5056169;28;20120;-74
2021/03/05 03:41:29;;;;;;;91.90;51.22;;;;;;;3.56;76.89;100292.00;5057071;28;20074;-75
2021/03/05 03:44:35;;;;;;;88.80;48.42;;;;;;;3.41;77.69;100295.25;5074729;28;20052;-76
2021/03/05 03:47:14;;;;;;;80.75;46.50;;;;;;;3.50;77.75;100280.25;5058030;28;20111;-76
2021/03/05 03:53:29;;;;;;;61.20;35.97;;;;;;;3.99;75.59;100293.00;5075092;28;20050;-74
2021/03/05 03:56:04;;;;;;;120.88;59.58;;;;;;;3.67;78.05;100299.56;5046857;28;20036;-76
2021/03/05 03:59:02;;;;;;;129.20;63.83;;;;;;;3.49;78.05;100290.25;5073973;28;20027;-76
2021/03/05 04:01:47;;;;;;;107.95;58.65;;;;;;;3.53;77.20;100287.78;5056819;28;20040;-76
2021/03/05 04:04:23;;;;;;;100.22;51.80;;;;;;;3.15;78.17;100289.22;5074125;28;20033;-76
2021/03/05 04:06:51;;;;;;;82.95;47.20;;;;;;;3.54;77.62;100286.13;5056660;28;20070;-76
2021/03/05 04:09:23;;;;;;;82.82;46.13;;;;;;;3.47;78.23;100271.81;5074147;28;20111;-76
2021/03/05 04:12:15;;;;;;;79.22;44.35;;;;;;;3.09;80.12;100291.69;5055983;28;20024;-75
2021/03/05 04:15:12;;;;;;;74.90;44.28;;;;;;;3.41;78.89;100291.88;5056602;28;20032;-75
2021/03/05 04:20:59;;;;;;;86.45;52.40;;;;;;;3.64;77.11;100282.81;5074568;28;20044;-75
2021/03/05 04:23:30;;;;;;;84.88;48.97;;;;;;;3.68;76.03;100271.09;5056576;28;20058;-74
2021/03/05 04:26:07;;;;;;;81.15;46.25;;;;;;;3.82;74.72;100270.31;5053989;28;20033;-75
2021/03/05 04:28:40;;;;;;;85.93;48.92;;;;;;;3.38;77.39;100261.72;5058211;28;20098;-73
2021/03/05 04:31:18;;;;;;;83.57;48.85;;;;;;;3.55;76.07;100295.31;5075860;28;20109;-73
2021/03/05 04:33:54;;;;;;;109.90;54.70;;;;;;;3.27;77.09;100261.66;5075082;28;20032;-73
2021/03/05 04:36:19;;;;;;;86.75;48.15;;;;;;;3.29;77.45;100272.56;5094443;28;20085;-75
2021/03/05 04:38:45;;;;;;;66.95;39.22;;;;;;;3.04;78.36;100283.28;5078749;28;20028;-76
2021/03/05 04:41:21;;;;;;;68.72;37.00;;;;;;;2.99;78.91;100284.91;5078400;28;20039;-75
2021/03/05 04:43:53;;;;;;;70.68;37.35;;;;;;;2.77;82.42;100284.75;5098674;28;20077;-76
2021/03/05 04:46:30;;;;;;;72.90;36.58;;;;;;;2.66;85.79;100292.19;5078851;28;20039;-76
2021/03/05 04:49:24;;;;;;;78.68;34.92;;;;;;;3.32;86.09;100304.41;5097935;28;20053;-74
2021/03/05 04:51:51;;;;;;;91.20;36.15;;;;;;;2.79;89.86;100283.09;5078554;28;20036;-76
2021/03/05 04:54:19;;;;;;;112.88;46.42;;;;;;;3.47;88.06;100291.91;5076672;28;20028;-76
2021/03/05 04:56:51;;;;;;;102.10;38.55;;;;;;;3.00;92.47;100306.69;5075404;28;20092;-83
2021/03/05 04:59:58;;;;;;;131.90;43.33;;;;;;;2.84;93.16;100304.88;5076765;28;20023;-83
2021/03/05 05:02:39;;;;;;;87.38;38.45;;;;;;;2.82;92.11;100295.66;5076320;28;20036;-83
2021/03/05 05:08:27;;;;;;;86.22;32.47;;;;;;;2.93;91.29;100279.84;5110822;28;20043;-81
2021/03/05 05:10:58;;;;;;;106.95;34.67;;;;;;;2.43;90.61;100298.66;5075853;28;20012;-80
2021/03/05 05:13:32;;;;;;;81.68;28.42;;;;;;;2.46;92.49;100276.09;5072853;28;20102;-77
2021/03/05 05:16:30;;;;;;;105.00;35.97;;;;;;;2.68;91.98;100313.09;5075085;28;20048;-79
2021/03/05 05:18:57;;;;;;;88.85;28.92;;;;;;;1.66;96.19;100305.31;5074817;28;20493;-81
2021/03/05 05:21:24;;;;;;;113.88;36.50;;;;;;;1.52;96.26;100310.13;5074483;28;20031;-83
2021/03/05 05:24:39;;;;;;;79.75;31.67;;;;;;;2.45;93.95;100314.56;5093577;28;20035;-78
2021/03/05 05:27:15;;;;;;;93.43;28.85;;;;;;;2.71;93.87;100319.84;5074454;28;20047;-78
2021/03/05 05:29:40;;;;;;;81.28;25.20;;;;;;;2.30;93.52;100310.22;5075030;28;20032;-84
2021/03/05 05:32:07;;;;;;;73.45;23.83;;;;;;;2.22;95.20;100326.84;5074385;28;20027;-79
2021/03/05 05:35:03;;;;;;;74.47;24.65;;;;;;;2.47;94.29;100353.91;5073989;28;20056;-76
2021/03/05 05:38:09;;;;;;;59.75;21.77;;;;;;;1.82;96.14;100357.31;5074766;28;20039;-78
2021/03/05 05:40:40;;;;;;;76.57;30.67;;;;;;;1.46;100.00;100357.63;5074355;28;20085;-77
2021/03/05 05:43:10;;;;;;;137.93;56.50;;;;;;;1.81;100.00;100352.25;5074166;28;20048;-80
2021/03/05 05:45:45;;;;;;;104.18;47.15;;;;;;;1.86;97.31;100353.16;5074920;28;20032;-77
2021/03/05 05:48:21;;;;;;;78.25;30.60;;;;;;;1.93;97.78;100337.38;5093030;28;20049;-79
2021/03/05 05:50:47;;;;;;;96.93;34.85;;;;;;;2.27;96.01;100352.84;5092967;28;20035;-80
2021/03/05 05:56:41;;;;;;;70.72;25.75;;;;;;;2.24;95.83;100379.56;5093325;28;20515;-83
2021/03/05 05:59:17;;;;;;;97.55;31.90;;;;;;;2.23;95.61;100382.88;5075119;28;20035;-83
2021/03/05 06:01:58;;;;;;;85.28;30.52;;;;;;;2.24;96.37;100379.56;5092757;28;20103;-80
2021/03/05 06:04:44;;;;;;;71.63;30.23;;;;;;;2.37;95.78;100378.84;5074931;28;20032;-83
2021/03/05 06:10:30;;;;;;;90.03;33.22;;;;;;;2.46;94.12;100361.38;5092968;28;20085;-81
2021/03/05 06:13:07;;;;;;;79.55;32.00;;;;;;;2.80;93.19;100360.91;5092628;28;20481;-83
2021/03/05 06:16:18;;;;;;;85.03;34.10;;;;;;;2.74;92.94;100370.88;5071754;28;20020;-86
2021/03/05 06:18:49;;;;;;;113.88;42.10;;;;;;;2.70;92.73;100366.66;5064158;28;20067;-85
2021/03/05 06:24:43;;;;;;;100.40;39.97;;;;;;;3.21;91.53;100369.63;5110163;28;20054;-83
2021/03/05 06:27:41;;;;;;;164.68;75.63;;;;;;;3.19;92.51;100370.47;5092937;28;20019;-82
2021/03/05 06:30:09;;;;;;;122.30;50.50;;;;;;;2.99;91.45;100357.72;5074395;28;20031;-82
2021/03/05 06:33:15;;;;;;;101.30;44.38;;;;;;;3.38;89.60;100359.72;5074155;28;20099;-82
2021/03/05 06:35:55;;;;;;;138.05;63.70;;;;;;;3.27;90.63;100362.13;5056328;28;20119;-84
2021/03/05 06:38:40;;;;;;;154.90;73.70;;;;;;;3.48;89.65;100369.84;5062520;28;20024;-82
2021/03/05 06:41:22;;;;;;;121.15;49.15;;;;;;;3.63;89.61;100360.69;5063078;28;20025;-82
2021/03/05 06:44:22;;;;;;;104.25;53.33;;;;;;;3.03;90.51;100371.97;5062570;28;20048;-83
2021/03/05 06:46:55;;;;;;;108.47;39.63;;;;;;;3.07;91.18;100366.16;5062716;28;20465;-82
2021/03/05 06:49:39;;;;;;;101.22;42.30;;;;;;;3.55;90.62;100365.69;5062683;28;20056;-82
2021/03/05 06:52:19;;;;;;;117.30;43.63;;;;;;;3.49;90.43;100363.97;5062913;28;20028;-83
2021/03/05 06:55:01;;;;;;;135.00;47.60;;;;;;;3.72;89.50;100360.78;5078526;28;20032;-83
2021/03/05 06:57:34;;;;;;;103.43;48.22;;;;;;;3.84;89.15;100363.34;5060497;28;20029;-86
2021/03/05 07:00:14;;;;;;;96.78;41.88;;;;;;;3.88;89.43;100365.88;5060494;28;20101;-84
2021/03/05 07:02:45;;;;;;;88.28;40.25;;;;;;;3.76;88.52;100360.81;5084253;28;20477;-84
2021/03/05 07:05:17;;;;;;;77.53;33.75;;;;;;;3.80;88.66;100367.53;5081897;28;20020;-85
2021/03/05 07:11:08;;;;;;;81.63;33.92;;;;;;;3.60;91.91;100386.66;5085244;28;20042;-83
2021/03/05 07:14:03;;;;;;;85.95;35.25;;;;;;;3.84;91.16;100379.28;5065955;28;20123;-83
2021/03/05 07:16:48;;;;;;;78.53;32.72;;;;;;;3.80;90.54;100381.75;5083394;28;20089;-82
2021/03/05 07:19:31;;;;;;;69.97;33.10;;;;;;;3.70;89.78;100375.00;5083081;28;20033;-83
2021/03/05 07:22:17;;;;;;;77.25;35.47;;;;;;;4.46;87.90;100382.03;5074569;28;20114;-85
2021/03/05 07:25:22;;;;;;;76.35;35.47;;;;;;;4.34;89.55;100382.84;5098552;28;20039;-85
2021/03/05 07:28:04;;;;;;;73.57;34.72;;;;;;;4.19;89.83;100371.88;5072749;28;20036;-86
2021/03/05 07:30:30;;;;;;;81.40;37.05;;;;;;;4.71;86.91;100372.88;5079116;28;20028;-81
2021/03/05 07:32:58;;;;;;;70.20;34.22;;;;;;;5.29;85.45;100372.91;5092030;28;20032;-82
2021/03/05 07:35:37;;;;;;;77.30;36.67;;;;;;;4.86;88.27;100376.25;5075010;28;20019;-83
2021/03/05 07:38:07;;;;;;;61.85;30.95;;;;;;;4.65;88.01;100362.81;5089759;28;20063;-83
2021/03/05 07:41:15;;;;;;;71.68;34.50;;;;;;;5.46;86.67;100382.16;5066387;28;20031;-83
2021/03/05 07:43:52;;;;;;;91.10;44.13;;;;;;;5.00;88.65;100372.09;5066954;28;20044;-84
2021/03/05 07:49:40;;;;;;;45.90;23.17;;;;;;;5.41;85.62;100353.59;5084677;28;20043;-82
2021/03/05 07:52:42;;;;;;;65.93;33.47;;;;;;;5.80;84.38;100374.50;5064891;28;20520;-84
2021/03/05 07:58:45;;;;;;;57.90;31.25;;;;;;;6.33;83.94;100373.53;5083011;28;20051;-82
2021/03/05 08:05:21;;;;;;;55.43;31.00;;;;;;;6.92;81.10;100363.94;5083405;28;20051;-84
2021/03/05 08:11:04;;;;;;;47.72;29.48;;;;;;;6.22;84.44;100350.03;5082411;28;20078;-83
2021/03/05 08:14:08;;;;;;;50.78;31.65;;;;;;;7.54;80.13;100358.34;5091019;28;20031;-83
2021/03/05 08:19:55;;;;;;;46.05;27.30;;;;;;;6.85;83.33;100337.84;5095230;28;20043;-85
2021/03/05 08:23:02;;;;;;;63.47;34.83;;;;;;;8.00;79.76;100340.97;5095113;28;20024;-84
2021/03/05 08:25:48;;;;;;;51.25;30.45;;;;;;;8.79;76.12;100335.72;5076717;28;20046;-83
2021/03/05 08:29:05;;;;;;;45.00;26.60;;;;;;;7.74;79.63;100331.16;5077105;28;20036;-83
2021/03/05 08:34:53;;;;;;;39.10;23.77;;;;;;;8.84;76.02;100313.66;5094790;28;20057;-85
2021/03/05 08:41:28;;;;;;;32.05;19.75;;;;;;;8.83;75.94;100322.97;5094779;28;20146;-83
2021/03/05 08:44:14;;;;;;;42.03;26.67;;;;;;;9.18;74.36;100295.34;5094185;28;20135;-83
2021/03/05 08:47:12;;;;;;;37.35;25.00;;;;;;;8.84;75.91;100314.50;5094653;28;20400;-83
2021/03/05 08:50:09;;;;;;;38.30;26.08;;;;;;;9.42;72.82;100320.28;5076363;28;20508;-85
2021/03/05 08:53:11;;;;;;;35.50;23.05;;;;;;;9.45;73.89;100311.75;5076130;28;20097;-84
2021/03/05 08:56:18;;;;;;;35.95;23.90;;;;;;;10.36;71.14;100304.03;5069639;28;20044;-84
2021/03/05 08:59:31;;;;;;;40.40;24.55;;;;;;;10.23;70.99;100295.00;5083576;28;20089;-83
2021/03/05 09:05:28;;;;;;;36.42;23.90;;;;;;;10.44;70.57;100281.81;5083789;28;20093;-83
2021/03/05 09:08:21;;;;;;;37.80;24.98;;;;;;;10.70;70.39;100293.94;5079199;28;20135;-83
2021/03/05 09:11:03;;;;;;;48.33;30.00;;;;;;;11.32;68.21;100287.28;5082739;28;20038;-82
2021/03/05 09:13:49;;;;;;;37.60;24.65;;;;;;;10.60;71.10;100284.03;5063297;28;20028;-82
2021/03/05 09:16:17;;;;;;;35.58;24.15;;;;;;;11.76;67.77;100269.16;5081397;28;20024;-82
2021/03/05 09:18:48;;;;;;;49.08;29.23;;;;;;;11.24;69.18;100274.78;5062587;28;20066;-81
2021/03/05 09:21:36;;;;;;;31.40;21.88;;;;;;;11.29;69.06;100278.03;5064000;28;20546;-82
2021/03/05 09:24:50;;;;;;;36.58;23.88;;;;;;;11.62;68.73;100272.91;5064397;28;20134;-82
2021/03/05 09:30:37;;;;;;;24.85;16.65;;;;;;;11.42;68.26;100248.00;5081859;28;20035;-83
2021/03/05 09:33:31;;;;;;;31.77;22.73;;;;;;;11.84;68.03;100263.84;5066993;28;20024;-82
2021/03/05 09:35:58;;;;;;;34.28;22.52;;;;;;;11.71;67.08;100253.16;5072826;28;20486;-82
2021/03/05 09:45:53;;;;;;;33.13;22.83;;;;;;;12.95;62.77;100264.63;5072785;28;20528;-82
2021/03/05 09:49:14;;;;;;;35.58;22.58;;;;;;;12.43;64.40;100250.13;5073087;28;20036;-82
2021/03/05 09:52:25;;;;;;;36.28;24.55;;;;;;;13.26;61.05;100255.06;5072750;28;20025;-82
2021/03/05 09:55:08;;;;;;;40.35;25.40;;;;;;;13.12;62.80;100254.69;5073169;28;20059;-81
2021/03/05 10:00:56;;;;;;;35.67;23.40;;;;;;;13.69;60.05;100256.91;5073200;28;20416;-81
2021/03/05 10:03:35;;;;;;;34.20;23.45;;;;;;;13.69;60.86;100222.00;5055334;28;20278;-81
2021/03/05 10:06:04;;;;;;;32.40;22.77;;;;;;;13.72;60.25;100244.91;5054769;28;20024;-81
2021/03/05 10:08:33;;;;;;;91.80;41.25;;;;;;;13.22;61.99;100243.28;5055132;28;20047;-80
2021/03/05 10:11:03;;;;;;;33.42;23.50;;;;;;;13.69;59.78;100239.88;5053765;28;20024;-82
2021/03/05 10:13:44;;;;;;;42.25;25.48;;;;;;;13.80;59.80;100226.72;5054497;28;20064;-82
2021/03/05 10:19:31;;;;;;;33.53;23.52;;;;;;;13.88;59.91;100230.63;5072520;28;20121;-78
2021/03/05 10:22:14;;;;;;;31.98;23.33;;;;;;;14.32;59.16;100226.41;5054577;28;20056;-78
2021/03/05 10:25:20;;;;;;;31.42;22.52;;;;;;;14.14;60.66;100226.28;5073741;28;20038;-79
2021/03/05 10:27:59;;;;;;;30.10;22.02;;;;;;;14.92;57.87;100212.88;5068170;28;20039;-79
2021/03/05 10:30:25;;;;;;;31.67;23.27;;;;;;;15.52;55.67;100186.38;5072979;28;20025;-80
2021/03/05 10:32:54;;;;;;;34.17;24.70;;;;;;;16.12;54.98;100211.75;5072328;28;20032;-80
2021/03/05 10:35:39;;;;;;;32.55;23.55;;;;;;;15.42;56.61;100205.59;5071950;28;20063;-79
2021/03/05 10:38:14;;;;;;;33.25;23.38;;;;;;;14.71;59.51;100203.53;5072175;28;20036;-81
2021/03/05 10:40:47;;;;;;;32.70;23.45;;;;;;;15.13;57.21;100199.13;5054709;28;20059;-79
2021/03/05 10:43:12;;;;;;;32.33;23.40;;;;;;;15.93;55.73;100189.59;5051432;28;20048;-79
2021/03/05 10:45:42;;;;;;;31.88;23.52;;;;;;;15.69;55.31;100194.13;5053707;28;20053;-80
2021/03/05 10:48:08;;;;;;;35.33;26.15;;;;;;;15.68;54.44;100171.97;5055819;28;20024;-82
2021/03/05 10:50:35;;;;;;;37.30;26.05;;;;;;;16.54;52.76;100172.16;5091967;28;20397;-83
2021/03/05 10:53:20;;;;;;;35.70;25.65;;;;;;;16.61;52.94;100176.06;5074545;28;20032;-83
2021/03/05 10:56:00;;;;;;;38.20;25.40;;;;;;;17.32;51.17;100157.81;5075375;28;20102;-83
2021/03/05 10:58:27;;;;;;;34.38;24.70;;;;;;;17.43;51.02;100154.69;5092502;28;20032;-83
2021/03/05 11:01:27;;;;;;;40.03;28.63;;;;;;;17.63;50.69;100157.06;5093586;28;20054;-83
2021/03/05 11:03:53;;;;;;;34.67;25.20;;;;;;;17.57;49.91;100149.66;5074446;28;20119;-83
2021/03/05 11:06:42;;;;;;;39.78;30.08;;;;;;;17.16;51.38;100150.06;5092077;28;20071;-83
2021/03/05 11:09:16;;;;;;;32.58;25.33;;;;;;;17.77;49.68;100146.81;5074210;28;20028;-83
2021/03/05 11:11:42;;;;;;;36.55;26.02;;;;;;;17.48;51.11;100145.81;5075114;28;20039;-83
2021/03/05 11:14:09;;;;;;;35.47;26.50;;;;;;;17.78;49.92;100136.47;5086606;28;20484;-82
2021/03/05 11:16:34;;;;;;;39.67;27.05;;;;;;;18.13;49.29;100134.50;5070379;28;20016;-81
2021/03/05 11:19:00;;;;;;;35.97;26.52;;;;;;;17.97;49.19;100131.97;5074674;28;20024;-83
2021/03/05 11:21:25;;;;;;;36.25;25.73;;;;;;;18.20;49.42;100126.34;5071565;28;20028;-83
2021/03/05 11:23:52;;;;;;;38.60;26.92;;;;;;;18.43;46.95;100129.38;5073216;28;20060;-81
2021/03/05 11:26:18;;;;;;;33.35;24.73;;;;;;;18.74;47.53;100119.78;5071360;28;20126;-80
2021/03/05 11:28:43;;;;;;;33.22;24.70;;;;;;;18.37;47.22;100098.81;5088877;28;20120;-80
2021/03/05 11:31:11;;;;;;;34.30;25.75;;;;;;;18.90;46.33;100117.09;5066848;28;20099;-80
2021/03/05 11:33:37;;;;;;;29.88;22.27;;;;;;;18.84;46.52;100096.84;5062509;28;20368;-81
2021/03/05 11:36:09;;;;;;;31.90;23.40;;;;;;;19.26;45.55;100102.00;5079557;28;20386;-80
2021/03/05 11:38:35;;;;;;;32.22;24.17;;;;;;;18.91;46.41;100093.00;5063636;28;20043;-81
2021/03/05 11:41:01;;;;;;;29.65;23.27;;;;;;;18.95;46.51;100095.31;5063371;28;20533;-80
2021/03/05 11:43:26;;;;;;;36.55;24.80;;;;;;;19.32;45.42;100099.03;5060815;28;20063;-83
2021/03/05 11:45:58;;;;;;;30.33;23.75;;;;;;;19.77;45.42;100101.34;5081125;28;20032;-82
2021/03/05 11:48:24;;;;;;;29.88;24.17;;;;;;;19.87;44.42;100083.50;5066341;28;20034;-82
2021/03/05 11:50:53;;;;;;;29.42;23.70;;;;;;;20.02;44.81;100082.53;5065231;28;20488;-81
2021/03/05 11:53:19;;;;;;;31.77;24.05;;;;;;;19.42;45.60;100096.75;5065850;28;20036;-83
2021/03/05 11:55:53;;;;;;;31.02;22.65;;;;;;;18.63;47.75;100069.81;5066956;28;20028;-81
2021/03/05 11:58:23;;;;;;;33.03;22.95;;;;;;;19.87;44.54;100070.59;5066236;28;20074;-82
2021/03/05 12:00:49;;;;;;;33.08;23.25;;;;;;;21.05;42.51;100073.00;5083065;28;20021;-81
2021/03/05 12:03:24;;;;;;;32.00;23.83;;;;;;;20.21;43.95;100056.34;5065558;28;20032;-82
2021/03/05 12:05:54;;;;;;;31.55;22.80;;;;;;;20.42;43.14;100062.69;5081779;28;20021;-82
2021/03/05 12:08:21;;;;;;;29.50;22.13;;;;;;;21.06;42.07;100052.19;5082733;28;20038;-82
2021/03/05 12:10:47;;;;;;;28.83;21.88;;;;;;;20.88;42.00;100052.63;5065709;28;20028;-81
2021/03/05 12:13:12;;;;;;;23.08;17.33;;;;;;;20.63;39.96;100037.97;5082137;28;20037;-79
2021/03/05 12:15:41;;;;;;;25.25;18.17;;;;;;;20.36;41.50;100045.81;5064475;28;20016;-80
2021/03/05 12:18:11;;;;;;;24.70;17.42;;;;;;;20.37;39.43;100047.50;5066083;28;20054;-81
2021/03/05 12:20:44;;;;;;;23.08;15.48;;;;;;;19.63;40.51;100016.25;5083013;28;20074;-82
2021/03/05 12:23:09;;;;;;;21.35;15.65;;;;;;;20.76;39.35;100025.84;5064284;28;20123;-82
2021/03/05 12:25:35;;;;;;;22.75;15.68;;;;;;;21.18;36.52;100035.00;5082983;28;20386;-82
2021/03/05 12:28:04;;;;;;;25.08;15.48;;;;;;;21.31;35.73;100002.16;5065384;28;20089;-82
2021/03/05 12:30:43;;;;;;;21.55;16.25;;;;;;;21.23;34.60;100015.66;5063849;28;20021;-81
2021/03/05 12:33:08;;;;;;;20.73;15.48;;;;;;;21.52;35.08;100011.78;5058660;28;20502;-81
2021/03/05 12:35:47;;;;;;;19.77;14.43;;;;;;;21.06;34.59;100017.75;5056567;28;20059;-81
2021/03/05 12:38:36;;;;;;;31.00;19.65;;;;;;;21.09;34.78;100010.63;5074042;28;20029;-81
2021/03/05 12:41:04;;;;;;;19.27;13.73;;;;;;;22.05;33.79;100001.84;5073931;28;20117;-82
2021/03/05 12:43:31;;;;;;;22.48;16.77;;;;;;;21.76;33.42;99993.66;5052155;28;20091;-82
2021/03/05 12:46:08;;;;;;;19.73;13.30;;;;;;;21.89;32.30;99985.84;5034154;28;20037;-81
2021/03/05 12:48:54;;;;;;;18.65;13.23;;;;;;;21.74;31.85;100000.69;5033022;28;20514;-81
2021/03/05 12:51:30;;;;;;;16.15;12.20;;;;;;;21.04;32.05;99993.75;5032596;28;20033;-81
2021/03/05 12:53:59;;;;;;;15.80;12.00;;;;;;;21.76;32.05;99995.41;5032980;28;20033;-81
2021/03/05 12:56:33;;;;;;;17.15;12.65;;;;;;;21.71;32.34;99992.34;5032960;28;20029;-82
2021/03/05 12:59:13;;;;;;;17.33;12.25;;;;;;;21.24;33.17;99993.19;5032147;28;20029;-82
2021/03/05 13:01:57;;;;;;;24.30;17.65;;;;;;;21.65;32.90;99997.97;5033736;28;20407;-81
2021/03/05 13:04:32;;;;;;;14.52;10.88;;;;;;;20.74;31.69;99982.03;5034518;28;20175;-80
2021/03/05 13:06:58;;;;;;;17.45;11.85;;;;;;;20.86;32.56;99969.22;5049902;28;20033;-79
2021/03/05 13:09:25;;;;;;;18.48;11.98;;;;;;;21.86;31.43;99970.50;5035616;28;20094;-80
2021/03/05 13:11:53;;;;;;;18.20;13.75;;;;;;;20.81;32.00;99989.38;5034764;28;20036;-80
2021/03/05 13:14:19;;;;;;;19.05;12.25;;;;;;;21.36;31.08;99974.19;5039586;28;20048;-80
2021/03/05 13:16:45;;;;;;;16.10;10.95;;;;;;;21.13;31.08;99969.84;5033140;28;20598;-79